Aviation Digital Data Service (ADDS)

Output produced by TAFs form (1423 UTC 16 July 2018)
found at http://www.aviationweather.gov/adds/tafs/
 
METAR text: HECA 161400Z 31011KT CAVOK 37/18 Q1006 NOSIG
Conditions at: HECA (CAIRO INTL AIRPO, EG) observed 1400 UTC 16 July 2018
Temperature: 37.0°C (99°F)
Dewpoint: 18.0°C (64°F) [RH = 33%]
Pressure (altimeter): 29.70 inches Hg (1006.0 mb)
Winds: from the NW (310 degrees) at 13 MPH (11 knots; 5.7 m/s)
Visibility: 6 or more miles (10+ km)
Ceiling: ceiling and visibility are OK
Clouds: unknown
Weather: no significant weather observed at this time

Forecast for: HECA (CAIRO INTL AIRPO, EG)
Text: TAF HECA 161100Z 1612/1718 30010KT CAVOK
Forecast period: 1200 UTC 16 July 2018 to 1800 UTC 17 July 2018
Forecast type: FROM: standard forecast or significant change
Winds: from the WNW (300 degrees) at 12 MPH (10 knots; 5.2 m/s)
Visibility: 6 or more miles (10+ km)
Clouds: not forecast
Weather: NSW  (no significant weather)